Pleasant Valley, Washington
Current Conditions -  °F | °C
As of 4:53 AM on Saturday 20 Dec 2014 (Local Time) from KBLI Reporting Station
Light Rain Light Rain  
Wind Chill: 50°   Ceiling: 4400
Heat Index: 50°   Visibility: 10mi
Dew Point: 36°   Wind: 13mph
Humidity: 59%   Direction: 130°SE
Pressure: 29.65"   Gusts: 24mph
Location:  48.8653°N, 122.636°W
Report Text: KBLI 201253Z AUTO 13011G21KT 10SM -RA BKN044 OVC060 10/02 A2965 RMK AO2 RAB50 SLP049 P0000 T01000022
Loading
Personal Weather Stations






























Interactive Weather Map New forecast layout! Learn more

10-Day Weather Forecast

Advertisements
Track Severe Weather on mobile